Time;durP1;ratioP1;P1;durP2;ratioP2;P2;SDS_P1;SDS_P2;PMS_P1;PMS_P2;Temp;Humidity;BMP_temperature;BMP_pressure;BME280_temperature;BME280_humidity;BME280_pressure;Samples;Min_cycle;Max_cycle;Signal;HPM_P1;HPM_P2
2021/03/23 00:01:44;;;;;;;9.45;3.70;;;5.50;92.10;;;;;;5008056;28;20052;-87
2021/03/23 00:04:12;;;;;;;10.98;6.30;;;5.50;92.00;;;;;;5027586;28;20059;-87
2021/03/23 00:06:38;;;;;;;8.52;5.13;;;5.60;92.10;;;;;;5004675;28;20140;-87
2021/03/23 00:09:06;;;;;;;7.85;5.47;;;5.60;92.10;;;;;;5007927;28;20136;-87
2021/03/23 00:11:40;;;;;;;9.05;4.80;;;5.50;92.00;;;;;;4991978;28;20056;-86
2021/03/23 00:14:09;;;;;;;9.10;5.13;;;5.50;92.00;;;;;;5026237;28;20128;-87
2021/03/23 00:16:41;;;;;;;7.82;4.38;;;5.60;92.10;;;;;;5008261;28;20056;-87
2021/03/23 00:19:07;;;;;;;8.02;4.38;;;5.60;92.10;;;;;;5009563;28;20045;-87
2021/03/23 00:21:34;;;;;;;6.05;4.30;;;5.60;92.00;;;;;;5022068;28;20104;-88
2021/03/23 00:24:00;;;;;;;7.13;4.30;;;5.60;92.00;;;;;;5016758;28;20108;-87
2021/03/23 00:26:27;;;;;;;12.88;5.10;;;5.50;92.00;;;;;;5010190;28;20046;-87
2021/03/23 00:28:55;;;;;;;8.30;4.80;;;5.60;92.10;;;;;;5009870;28;20128;-86
2021/03/23 00:31:27;;;;;;;8.55;4.93;;;5.50;92.10;;;;;;5027602;28;20049;-89
2021/03/23 00:33:53;;;;;;;11.20;5.40;;;5.60;92.10;;;;;;5007915;28;20104;-87
2021/03/23 00:36:23;;;;;;;10.50;5.30;;;5.50;92.10;;;;;;5009530;28;20053;-87
2021/03/23 00:38:51;;;;;;;6.65;4.30;;;5.50;92.20;;;;;;5010119;28;20045;-88
2021/03/23 00:41:17;;;;;;;8.60;4.05;;;5.50;92.20;;;;;;5009553;28;20055;-87
2021/03/23 00:43:43;;;;;;;8.07;4.40;;;5.50;92.20;;;;;;5027057;28;20037;-87
2021/03/23 00:46:09;;;;;;;8.00;4.90;;;5.50;92.20;;;;;;5011648;28;20064;-87
2021/03/23 00:48:35;;;;;;;6.82;4.70;;;5.40;92.30;;;;;;5008232;28;20397;-87
2021/03/23 00:51:01;;;;;;;9.30;5.93;;;5.40;92.30;;;;;;5007030;28;20060;-87
2021/03/23 00:53:27;;;;;;;8.00;5.28;;;5.30;92.30;;;;;;5025085;28;20062;-87
2021/03/23 00:55:53;;;;;;;7.07;4.97;;;5.30;92.30;;;;;;5025611;28;20061;-87
2021/03/23 00:58:19;;;;;;;10.75;6.10;;;5.30;92.40;;;;;;5026324;28;20050;-86
2021/03/23 01:00:45;;;;;;;10.82;5.97;;;5.20;92.50;;;;;;5007406;28;20044;-87
2021/03/23 01:03:11;;;;;;;9.43;4.93;;;5.10;92.60;;;;;;5026322;28;20552;-87
2021/03/23 01:05:37;;;;;;;9.55;5.13;;;5.10;92.70;;;;;;5007666;28;20075;-87
2021/03/23 01:08:05;;;;;;;8.20;5.28;;;5.00;92.70;;;;;;5007249;28;20053;-86
2021/03/23 01:10:33;;;;;;;7.95;5.10;;;5.00;92.70;;;;;;5007481;28;20448;-87
2021/03/23 01:12:59;;;;;;;9.60;5.10;;;5.00;92.70;;;;;;5027637;28;20042;-85
2021/03/23 01:15:30;;;;;;;6.63;4.63;;;5.00;92.70;;;;;;5027882;28;20136;-89
2021/03/23 01:17:56;;;;;;;9.05;5.32;;;4.90;92.80;;;;;;5010788;28;20505;-87
2021/03/23 01:20:24;;;;;;;9.65;5.40;;;4.90;92.80;;;;;;5013617;28;20049;-86
2021/03/23 01:22:50;;;;;;;11.07;5.47;;;4.90;92.80;;;;;;5027630;28;20057;-87
2021/03/23 01:25:16;;;;;;;11.95;6.45;;;4.80;92.80;;;;;;5028488;28;20048;-87
2021/03/23 01:27:43;;;;;;;8.52;5.50;;;4.80;92.80;;;;;;5011369;28;20053;-88
2021/03/23 01:30:10;;;;;;;10.65;7.13;;;4.80;92.80;;;;;;5029674;28;20095;-86
2021/03/23 01:32:37;;;;;;;11.50;8.10;;;4.80;92.80;;;;;;5027591;28;20037;-87
2021/03/23 01:35:04;;;;;;;12.80;8.27;;;4.80;92.90;;;;;;5030143;28;20049;-87
2021/03/23 01:37:30;;;;;;;17.05;9.75;;;4.70;92.90;;;;;;5015909;28;20061;-88
2021/03/23 01:39:55;;;;;;;15.40;10.27;;;4.70;92.90;;;;;;5029358;28;20512;-87
2021/03/23 01:42:21;;;;;;;15.90;9.43;;;4.70;92.90;;;;;;5030617;28;20073;-87
2021/03/23 01:45:25;;;;;;;14.38;9.48;;;4.60;93.00;;;;;;5010284;28;20056;-87
2021/03/23 01:47:53;;;;;;;14.90;10.02;;;4.60;93.00;;;;;;4980849;28;20133;-87
2021/03/23 01:50:21;;;;;;;16.80;10.93;;;4.60;93.00;;;;;;5004262;28;20054;-87
2021/03/23 01:52:55;;;;;;;16.98;10.93;;;4.60;93.00;;;;;;5012478;28;20046;-87
2021/03/23 01:55:22;;;;;;;13.88;8.98;;;4.50;93.10;;;;;;5011234;28;20546;-87
2021/03/23 01:57:50;;;;;;;15.23;9.93;;;4.50;93.10;;;;;;5007741;28;20121;-87
2021/03/23 02:00:16;;;;;;;14.38;10.10;;;4.40;93.00;;;;;;5008976;28;20057;-87
2021/03/23 02:02:42;;;;;;;14.30;9.13;;;4.40;93.00;;;;;;5010394;28;20042;-87
2021/03/23 02:05:16;;;;;;;14.55;10.13;;;4.40;93.10;;;;;;5008239;28;20448;-86
2021/03/23 02:07:42;;;;;;;18.73;10.77;;;4.40;93.10;;;;;;5006841;28;20050;-87
2021/03/23 02:10:08;;;;;;;18.85;11.98;;;4.30;93.10;;;;;;5010679;28;20053;-87
2021/03/23 02:12:35;;;;;;;19.63;12.48;;;4.30;93.50;;;;;;5009490;28;20109;-88
2021/03/23 02:15:01;;;;;;;19.63;13.80;;;4.30;93.20;;;;;;5006708;28;20042;-87
2021/03/23 02:17:32;;;;;;;24.70;15.20;;;4.30;93.20;;;;;;5011164;28;20049;-87
2021/03/23 02:20:17;;;;;;;21.65;14.75;;;4.30;93.30;;;;;;5009104;28;20050;-85
2021/03/23 02:22:45;;;;;;;26.27;15.95;;;4.40;93.30;;;;;;5009243;28;20386;-88
2021/03/23 02:25:14;;;;;;;22.80;14.98;;;4.30;93.30;;;;;;5007859;28;20060;-86
2021/03/23 02:27:40;;;;;;;17.98;13.55;;;4.40;93.60;;;;;;5008482;28;20061;-87
2021/03/23 02:30:22;;;;;;;24.52;15.07;;;4.40;93.40;;;;;;5008488;28;20093;-87
2021/03/23 02:32:48;;;;;;;22.40;14.00;;;4.40;93.30;;;;;;4992555;28;20073;-87
2021/03/23 02:35:14;;;;;;;25.52;16.75;;;4.40;93.40;;;;;;5009718;28;20049;-87
2021/03/23 02:37:40;;;;;;;29.35;18.58;;;4.40;93.40;;;;;;5008348;28;20044;-87
2021/03/23 02:40:07;;;;;;;20.27;13.98;;;4.40;93.40;;;;;;5009460;28;20046;-87
2021/03/23 02:42:33;;;;;;;22.35;15.00;;;4.40;93.40;;;;;;5006972;28;20054;-89
2021/03/23 02:44:59;;;;;;;21.33;14.63;;;4.40;93.30;;;;;;4988834;28;20406;-86
2021/03/23 02:47:25;;;;;;;21.30;14.55;;;4.50;93.30;;;;;;5010009;28;20052;-87
2021/03/23 02:49:51;;;;;;;20.83;14.55;;;4.50;93.30;;;;;;5009400;28;20053;-87
2021/03/23 02:52:18;;;;;;;21.48;14.13;;;4.50;93.30;;;;;;5027264;28;20052;-87
2021/03/23 02:54:44;;;;;;;24.90;14.85;;;4.40;93.20;;;;;;5007643;28;20116;-87
2021/03/23 02:57:10;;;;;;;21.65;13.32;;;4.40;93.20;;;;;;5006408;28;20050;-86
2021/03/23 02:59:36;;;;;;;20.27;12.77;;;4.40;93.30;;;;;;5018827;28;20100;-88
2021/03/23 03:02:06;;;;;;;23.23;14.30;;;4.30;93.20;;;;;;5023424;28;20042;-86
2021/03/23 03:04:36;;;;;;;24.67;15.07;;;4.30;93.20;;;;;;5024945;28;20057;-91
2021/03/23 03:07:03;;;;;;;24.08;15.40;;;4.30;93.30;;;;;;5025768;28;20038;-86
2021/03/23 03:09:28;;;;;;;26.45;16.10;;;4.40;93.40;;;;;;5009662;28;20049;-85
2021/03/23 03:11:54;;;;;;;22.60;14.55;;;4.40;93.40;;;;;;5009919;28;20052;-87
2021/03/23 03:14:20;;;;;;;21.30;13.57;;;4.30;93.30;;;;;;5026750;28;20104;-89
2021/03/23 03:16:47;;;;;;;28.80;15.05;;;4.30;93.30;;;;;;5008264;28;20125;-88
2021/03/23 03:19:14;;;;;;;24.60;13.98;;;4.20;93.30;;;;;;5011546;28;20064;-87
2021/03/23 03:21:39;;;;;;;32.22;18.10;;;4.20;93.40;;;;;;5008094;28;20069;-89
2021/03/23 03:24:06;;;;;;;23.08;13.95;;;4.20;93.50;;;;;;5027152;28;20065;-87
2021/03/23 03:26:32;;;;;;;24.60;13.10;;;4.20;93.50;;;;;;5009380;28;20046;-89
2021/03/23 03:28:58;;;;;;;22.65;13.80;;;4.10;93.40;;;;;;5006822;28;20095;-85
2021/03/23 03:31:28;;;;;;;27.73;14.52;;;4.10;93.40;;;;;;5010719;28;20458;-88
2021/03/23 03:33:55;;;;;;;22.92;14.55;;;4.10;93.30;;;;;;5010730;28;20287;-87
2021/03/23 03:36:23;;;;;;;25.55;15.20;;;4.10;93.30;;;;;;5022756;28;20416;-87
2021/03/23 03:38:49;;;;;;;25.20;14.13;;;4.10;93.40;;;;;;5017577;28;20521;-88
2021/03/23 03:41:15;;;;;;;26.88;17.60;;;4.20;93.40;;;;;;5010896;28;20073;-87
2021/03/23 03:43:41;;;;;;;29.38;15.82;;;4.10;93.40;;;;;;5026658;28;20046;-87
2021/03/23 03:46:08;;;;;;;26.90;16.70;;;4.30;93.50;;;;;;5021005;28;20056;-87
2021/03/23 03:48:34;;;;;;;22.10;13.82;;;4.30;93.50;;;;;;5010416;28;20051;-89
2021/03/23 03:51:00;;;;;;;26.33;15.25;;;4.30;93.60;;;;;;5024624;28;20049;-86
2021/03/23 03:53:25;;;;;;;25.08;14.60;;;4.30;93.50;;;;;;5027877;28;20052;-87
2021/03/23 03:55:53;;;;;;;25.48;16.48;;;4.30;93.60;;;;;;5027769;28;20893;-87
2021/03/23 03:58:18;;;;;;;27.23;16.77;;;4.30;93.60;;;;;;5005489;28;20069;-87
2021/03/23 04:00:44;;;;;;;29.45;18.10;;;4.40;93.70;;;;;;5009046;28;20120;-89
2021/03/23 04:03:15;;;;;;;30.17;19.52;;;4.40;93.80;;;;;;5028393;28;20046;-87
2021/03/23 04:05:43;;;;;;;32.58;20.83;;;4.40;93.80;;;;;;5022604;28;20132;-87
2021/03/23 04:08:11;;;;;;;31.48;20.90;;;4.50;93.90;;;;;;5009832;28;20045;-88
2021/03/23 04:10:38;;;;;;;29.98;21.20;;;4.50;93.90;;;;;;5018693;28;20083;-87
2021/03/23 04:13:04;;;;;;;32.83;22.08;;;4.50;93.90;;;;;;5007624;28;20049;-86
2021/03/23 04:15:41;;;;;;;32.58;20.95;;;4.50;93.90;;;;;;5009111;28;20041;-86
2021/03/23 04:18:09;;;;;;;30.73;21.42;;;4.60;94.00;;;;;;5002745;28;20124;-88
2021/03/23 04:20:37;;;;;;;31.15;22.70;;;4.70;93.90;;;;;;5027100;28;20057;-89
2021/03/23 04:23:04;;;;;;;30.50;21.75;;;4.70;93.80;;;;;;5025929;28;20469;-87
2021/03/23 04:25:32;;;;;;;34.70;22.83;;;4.70;93.80;;;;;;5024658;28;20553;-86
2021/03/23 04:27:59;;;;;;;28.08;22.25;;;4.70;93.90;;;;;;5025582;28;20069;-87
2021/03/23 04:30:26;;;;;;;32.72;21.52;;;4.60;93.90;;;;;;5010077;28;21416;-87
2021/03/23 04:32:55;;;;;;;36.08;22.95;;;4.70;93.80;;;;;;5031979;28;20053;-87
2021/03/23 04:35:39;;;;;;;32.85;20.75;;;4.60;93.90;;;;;;5020193;28;20444;-87
2021/03/23 04:38:09;;;;;;;31.90;22.42;;;4.60;93.90;;;;;;4996567;28;20553;-87
2021/03/23 04:40:35;;;;;;;32.20;22.13;;;4.60;94.00;;;;;;5009334;28;20041;-89
2021/03/23 04:43:01;;;;;;;34.60;23.63;;;4.50;93.90;;;;;;5019583;28;20064;-86
2021/03/23 04:45:26;;;;;;;36.65;24.35;;;4.60;94.00;;;;;;5023646;28;20057;-87
2021/03/23 04:47:52;;;;;;;37.95;26.10;;;4.60;94.00;;;;;;5023750;28;20157;-88
2021/03/23 04:50:18;;;;;;;40.63;25.45;;;4.60;94.10;;;;;;5031397;28;22697;-87
2021/03/23 04:52:45;;;;;;;41.05;23.83;;;4.50;94.20;;;;;;5020323;28;20060;-87
2021/03/23 04:55:14;;;;;;;38.17;24.60;;;4.50;94.20;;;;;;5005001;28;20058;-88
2021/03/23 04:57:40;;;;;;;44.95;26.70;;;4.60;94.20;;;;;;5000739;28;20057;-89
2021/03/23 05:00:09;;;;;;;41.72;26.30;;;4.50;94.30;;;;;;4991194;28;20057;-89
2021/03/23 05:02:35;;;;;;;49.90;27.20;;;4.60;94.40;;;;;;5011623;28;21339;-91
2021/03/23 05:05:00;;;;;;;47.95;28.48;;;4.60;94.60;;;;;;5012048;28;20045;-86
2021/03/23 05:07:27;;;;;;;52.10;31.05;;;4.60;94.70;;;;;;5015385;28;20049;-87
2021/03/23 05:09:53;;;;;;;63.10;29.88;;;4.60;94.80;;;;;;4992571;28;20049;-87
2021/03/23 05:12:18;;;;;;;59.47;31.17;;;4.60;95.00;;;;;;4994708;28;20054;-88
2021/03/23 05:14:44;;;;;;;64.75;31.48;;;4.60;95.10;;;;;;5011486;28;20046;-86
2021/03/23 05:17:10;;;;;;;73.18;33.47;;;4.60;95.20;;;;;;5002456;28;20053;-85
2021/03/23 05:19:36;;;;;;;72.25;32.33;;;4.60;95.30;;;;;;4989816;28;20047;-88
2021/03/23 05:22:03;;;;;;;81.82;35.70;;;4.60;95.50;;;;;;5010545;28;20613;-86
2021/03/23 05:24:28;;;;;;;77.30;33.53;;;4.60;95.60;;;;;;4997859;28;20054;-87
2021/03/23 05:26:54;;;;;;;88.78;33.95;;;4.60;95.70;;;;;;4991875;28;20076;-88
2021/03/23 05:29:20;;;;;;;83.43;34.60;;;4.60;95.80;;;;;;5007484;28;20042;-88
2021/03/23 05:31:47;;;;;;;98.88;37.25;;;4.70;95.90;;;;;;4999630;28;20044;-91
2021/03/23 05:34:16;;;;;;;103.75;36.30;;;4.60;95.90;;;;;;4995110;28;20049;-87
2021/03/23 05:36:43;;;;;;;101.63;34.60;;;4.60;96.00;;;;;;5004954;28;20050;-87
2021/03/23 05:39:10;;;;;;;100.18;34.92;;;4.60;96.10;;;;;;5007249;28;20140;-87
2021/03/23 05:41:49;;;;;;;104.05;34.50;;;4.70;96.10;;;;;;5009293;28;20044;-89
2021/03/23 05:44:21;;;;;;;113.38;36.15;;;4.70;96.30;;;;;;4992236;28;20058;-87
2021/03/23 05:46:47;;;;;;;104.22;36.78;;;4.70;96.20;;;;;;5001019;28;20046;-86
2021/03/23 05:49:36;;;;;;;100.47;34.13;;;4.70;96.30;;;;;;5004374;28;20037;-87
2021/03/23 05:52:09;;;;;;;98.38;35.45;;;4.70;96.30;;;;;;5010203;28;20422;-88
2021/03/23 05:54:43;;;;;;;99.07;34.47;;;4.70;96.30;;;;;;5011160;28;20454;-89
2021/03/23 05:57:37;;;;;;;87.77;32.37;;;4.80;96.40;;;;;;4987944;28;20046;-87
2021/03/23 06:00:18;;;;;;;93.97;34.67;;;4.80;96.40;;;;;;5003466;28;20182;-89
2021/03/23 06:02:50;;;;;;;89.10;33.75;;;4.80;96.40;;;;;;4977514;28;20050;-90
2021/03/23 06:05:31;;;;;;;92.50;35.42;;;4.90;96.50;;;;;;4987888;28;20058;-89
2021/03/23 06:08:00;;;;;;;91.57;36.47;;;4.90;96.50;;;;;;4991815;28;20046;-90
2021/03/23 06:10:27;;;;;;;93.22;34.38;;;4.90;96.50;;;;;;4992940;28;20050;-89
2021/03/23 06:13:21;;;;;;;84.97;36.58;;;5.00;96.50;;;;;;5004675;28;20111;-90
2021/03/23 06:16:19;;;;;;;94.35;34.92;;;5.00;96.50;;;;;;4985268;28;20057;-89
2021/03/23 06:19:03;;;;;;;83.43;34.58;;;5.00;96.50;;;;;;4970898;28;20053;-89
2021/03/23 06:21:39;;;;;;;80.00;33.55;;;5.00;96.50;;;;;;5011062;28;20129;-89
2021/03/23 06:24:43;;;;;;;85.50;36.15;;;5.00;96.50;;;;;;4997247;28;20057;-90
2021/03/23 06:27:18;;;;;;;77.70;34.65;;;5.10;96.40;;;;;;4991432;28;20046;-89
2021/03/23 06:30:02;;;;;;;;;;;5.10;96.40;;;;;;5001882;28;20049;-89
2021/03/23 06:32:37;;;;;;;78.72;37.72;;;5.10;96.30;;;;;;4993686;28;19936;-90
2021/03/23 06:35:06;;;;;;;75.03;36.42;;;5.10;96.30;;;;;;4996932;28;20053;-89
2021/03/23 06:37:37;;;;;;;75.38;39.55;;;5.20;96.30;;;;;;4996306;28;20054;-92
2021/03/23 06:40:22;;;;;;;76.32;38.38;;;5.30;96.30;;;;;;4991192;28;20053;-89
2021/03/23 06:42:54;;;;;;;74.53;38.83;;;5.30;96.20;;;;;;4993996;28;20066;-90
2021/03/23 06:45:37;;;;;;;70.85;38.78;;;5.30;96.20;;;;;;4995061;28;20054;-90
2021/03/23 06:48:28;;;;;;;70.00;38.30;;;5.30;96.20;;;;;;5001980;28;20614;-90
2021/03/23 06:51:15;;;;;;;78.70;40.30;;;5.40;96.20;;;;;;5017143;28;20429;-89
2021/03/23 06:53:43;;;;;;;70.80;39.08;;;5.40;96.10;;;;;;4981948;28;20050;-89
2021/03/23 06:56:22;;;;;;;66.65;38.15;;;5.40;96.10;;;;;;4990812;28;20076;-89
2021/03/23 06:59:09;;;;;;;61.47;37.60;;;5.50;96.10;;;;;;4992251;28;20386;-89
2021/03/23 07:01:44;;;;;;;69.18;39.70;;;5.50;95.90;;;;;;4988788;28;20046;-91
2021/03/23 07:04:41;;;;;;;67.57;40.95;;;5.60;95.80;;;;;;4991340;28;20057;-89
2021/03/23 07:07:21;;;;;;;68.03;40.97;;;5.60;95.80;;;;;;4983130;28;20515;-89
2021/03/23 07:09:47;;;;;;;64.63;38.92;;;5.60;95.70;;;;;;5017628;28;20041;-89
2021/03/23 07:12:14;;;;;;;62.92;38.35;;;5.70;95.70;;;;;;5001972;28;20124;-86
2021/03/23 07:14:43;;;;;;;65.65;40.55;;;5.70;95.60;;;;;;4974712;28;20054;-87
2021/03/23 07:17:09;;;;;;;65.65;38.55;;;5.80;95.50;;;;;;5012312;28;20049;-86
2021/03/23 07:19:51;;;;;;;65.15;39.03;;;5.80;95.40;;;;;;5011386;28;20128;-89
2021/03/23 07:22:34;;;;;;;58.55;37.33;;;5.90;95.30;;;;;;4991521;28;20121;-87
2021/03/23 07:25:04;;;;;;;65.70;39.00;;;5.90;95.70;;;;;;5020593;28;20401;-86
2021/03/23 07:27:30;;;;;;;63.83;39.03;;;5.90;95.40;;;;;;5002806;28;20045;-85
2021/03/23 07:30:25;;;;;;;66.60;39.00;;;6.00;95.30;;;;;;5013533;28;20045;-87
2021/03/23 07:32:56;;;;;;;64.03;39.30;;;6.00;95.30;;;;;;4983106;28;20061;-87
2021/03/23 07:35:28;;;;;;;65.57;39.47;;;6.10;95.20;;;;;;4991812;28;20068;-87
2021/03/23 07:38:16;;;;;;;61.10;37.53;;;6.20;95.20;;;;;;5019933;28;20049;-87
2021/03/23 07:40:46;;;;;;;61.13;36.30;;;6.20;94.90;;;;;;4971068;28;20109;-88
2021/03/23 07:43:45;;;;;;;57.92;34.20;;;6.30;94.70;;;;;;4991485;28;20067;-88
2021/03/23 07:46:31;;;;;;;58.40;35.03;;;6.30;94.60;;;;;;4998085;28;20140;-87
2021/03/23 07:49:15;;;;;;;56.60;35.55;;;6.30;94.50;;;;;;5001104;28;20050;-87
2021/03/23 07:51:45;;;;;;;58.10;36.47;;;6.40;94.40;;;;;;4976810;28;20045;-88
2021/03/23 07:54:24;;;;;;;56.20;36.00;;;6.40;94.50;;;;;;5005175;28;20045;-87
2021/03/23 07:57:02;;;;;;;59.75;36.47;;;6.40;94.60;;;;;;4972412;28;20085;-88
2021/03/23 08:00:04;;;;;;;51.15;33.60;;;6.50;94.60;;;;;;5007394;28;20076;-87
2021/03/23 08:02:53;;;;;;;53.35;32.35;;;6.60;94.50;;;;;;4993957;28;20049;-86
2021/03/23 08:05:26;;;;;;;51.85;33.83;;;6.60;94.10;;;;;;4988536;28;21603;-88
2021/03/23 08:08:12;;;;;;;53.15;33.78;;;6.70;94.10;;;;;;5007257;28;20054;-91
2021/03/23 08:10:54;;;;;;;;;;;6.70;93.90;;;;;;4994200;28;20137;-88
2021/03/23 08:13:52;;;;;;;50.72;32.67;;;6.70;93.70;;;;;;5003519;28;19929;-88
2021/03/23 08:16:44;;;;;;;47.58;32.05;;;6.70;93.70;;;;;;4948737;28;20491;-88
2021/03/23 08:19:28;;;;;;;47.45;32.53;;;6.80;93.80;;;;;;4995651;28;20101;-88
2021/03/23 08:22:24;;;;;;;46.28;30.85;;;6.90;93.80;;;;;;4988737;28;20042;-88
2021/03/23 08:25:26;;;;;;;44.50;30.10;;;6.90;93.60;;;;;;4995744;28;21631;-88
2021/03/23 08:28:13;;;;;;;47.78;30.65;;;7.00;93.60;;;;;;5000247;28;20049;-88
2021/03/23 08:30:54;;;;;;;44.90;29.67;;;7.00;93.50;;;;;;5008210;28;20097;-88
2021/03/23 08:33:47;;;;;;;44.80;30.08;;;7.10;93.40;;;;;;4992370;28;20592;-88
2021/03/23 08:36:32;;;;;;;43.10;29.83;;;7.10;93.00;;;;;;4982227;28;20057;-88
2021/03/23 08:39:27;;;;;;;45.65;29.15;;;7.20;92.90;;;;;;5005734;28;20049;-88
2021/03/23 08:42:15;;;;;;;30.77;21.00;;;7.30;92.70;;;;;;4995276;28;20080;-88
2021/03/23 08:45:05;;;;;;;40.58;27.27;;;7.40;92.70;;;;;;4997341;28;20057;-88
2021/03/23 08:47:41;;;;;;;44.25;27.70;;;7.50;92.30;;;;;;5009310;28;20050;-88
2021/03/23 08:50:22;;;;;;;35.65;24.90;;;7.60;91.70;;;;;;5011665;28;20073;-88
2021/03/23 08:52:51;;;;;;;37.85;25.35;;;7.60;91.10;;;;;;5012369;28;20045;-90
2021/03/23 08:55:30;;;;;;;36.67;22.65;;;7.70;90.50;;;;;;5031373;28;20498;-88
2021/03/23 08:58:10;;;;;;;37.67;25.50;;;7.80;88.40;;;;;;5038453;28;20033;-89
2021/03/23 09:00:39;;;;;;;36.53;24.02;;;7.70;88.80;;;;;;5039949;28;20060;-94
2021/03/23 09:03:11;;;;;;;36.25;24.40;;;7.80;89.10;;;;;;5049205;28;20057;-90
2021/03/23 09:05:59;;;;;;;33.67;22.70;;;7.80;89.50;;;;;;5034857;28;20029;-91
2021/03/23 09:08:45;;;;;;;38.92;24.77;;;7.90;87.80;;;;;;5050625;28;20057;-89
2021/03/23 09:11:36;;;;;;;33.42;21.65;;;7.90;88.60;;;;;;4997595;28;20067;-88
2021/03/23 09:14:02;;;;;;;38.63;25.27;;;8.10;87.00;;;;;;5044543;28;20049;-89
2021/03/23 09:16:59;;;;;;;34.50;23.70;;;8.10;87.90;;;;;;5034167;28;20037;-89
2021/03/23 09:19:45;;;;;;;38.55;23.85;;;8.10;86.90;;;;;;5021873;28;20077;-90
2021/03/23 09:22:16;;;;;;;32.78;21.50;;;8.10;86.10;;;;;;5034604;28;20072;-89
2021/03/23 09:24:44;;;;;;;30.65;21.77;;;8.10;85.20;;;;;;5042666;28;20041;-91
2021/03/23 09:27:32;;;;;;;34.13;22.55;;;8.10;84.20;;;;;;5035573;28;20052;-91
2021/03/23 09:29:58;;;;;;;35.63;22.63;;;8.20;83.10;;;;;;5048745;28;20054;-92
2021/03/23 09:32:26;;;;;;;33.72;22.80;;;8.30;83.70;;;;;;5020858;28;20056;-90
2021/03/23 09:35:13;;;;;;;34.15;22.00;;;8.40;83.50;;;;;;5011062;28;20078;-89
2021/03/23 09:37:42;;;;;;;31.88;20.75;;;8.50;82.80;;;;;;5015448;28;20052;-90
2021/03/23 09:40:18;;;;;;;35.83;22.50;;;8.50;82.30;;;;;;5023916;28;20064;-89
2021/03/23 09:42:53;;;;;;;;;;;8.70;81.50;;;;;;4987585;28;20401;-90
2021/03/23 09:45:38;;;;;;;32.58;22.85;;;8.60;81.90;;;;;;5012602;28;19963;-91
2021/03/23 09:48:24;;;;;;;34.33;23.55;;;8.60;82.30;;;;;;5044459;28;20056;-90
2021/03/23 09:50:52;;;;;;;35.22;22.80;;;8.60;81.70;;;;;;5011884;28;22860;-89
2021/03/23 09:53:27;;;;;;;29.88;21.48;;;8.80;81.00;;;;;;5010384;28;20589;-90
2021/03/23 09:55:53;;;;;;;35.03;23.02;;;9.10;80.70;;;;;;5011766;28;20045;-90
2021/03/23 09:58:27;;;;;;;33.85;23.75;;;9.30;79.10;;;;;;5008449;28;20493;-90
2021/03/23 10:01:08;;;;;;;32.25;21.88;;;9.50;79.20;;;;;;5020599;28;20153;-89
2021/03/23 10:03:37;;;;;;;31.00;22.58;;;9.70;78.50;;;;;;5018664;28;20061;-91
2021/03/23 10:06:11;;;;;;;32.05;22.80;;;10.10;79.00;;;;;;5049924;28;20073;-87
2021/03/23 10:08:37;;;;;;;31.38;22.48;;;10.30;76.20;;;;;;5052323;28;20045;-94
2021/03/23 10:11:22;;;;;;;33.15;23.48;;;10.60;74.60;;;;;;5031829;28;20052;-90
2021/03/23 10:13:53;;;;;;;33.20;23.63;;;10.60;74.80;;;;;;5050181;28;20034;-90
2021/03/23 10:16:32;;;;;;;34.03;23.90;;;10.60;75.30;;;;;;5030367;28;20038;-88
2021/03/23 10:19:07;;;;;;;34.20;24.38;;;10.70;74.70;;;;;;5031532;28;20046;-90
2021/03/23 10:21:35;;;;;;;35.10;25.02;;;10.60;74.10;;;;;;5034357;28;20113;-90
2021/03/23 10:24:06;;;;;;;33.70;24.92;;;10.60;73.90;;;;;;5032642;28;20050;-86
2021/03/23 10:26:34;;;;;;;33.72;23.35;;;10.50;74.70;;;;;;5051826;28;20038;-90
2021/03/23 10:29:11;;;;;;;35.55;24.10;;;10.50;73.20;;;;;;5039823;28;20152;-88
2021/03/23 10:31:41;;;;;;;37.63;24.50;;;10.40;73.50;;;;;;5018261;28;20074;-93
2021/03/23 10:34:09;;;;;;;35.22;24.50;;;10.30;73.90;;;;;;5045727;28;20049;-89
2021/03/23 10:36:47;;;;;;;35.90;25.20;;;10.20;74.60;;;;;;5033499;28;20025;-92
2021/03/23 10:39:30;;;;;;;37.38;26.67;;;10.20;76.10;;;;;;5044560;28;20144;-88
2021/03/23 10:41:58;;;;;;;43.67;30.33;;;10.30;75.10;;;;;;5047658;28;20068;-89
2021/03/23 10:44:27;;;;;;;36.10;23.67;;;10.30;74.30;;;;;;5030728;28;20065;-89
2021/03/23 10:46:54;;;;;;;35.85;25.77;;;10.30;73.70;;;;;;5031433;28;20075;-89
2021/03/23 10:49:21;;;;;;;38.03;24.63;;;10.10;74.90;;;;;;5026987;28;20151;-89
2021/03/23 10:51:49;;;;;;;38.83;25.73;;;10.10;74.40;;;;;;5029414;28;20149;-90
2021/03/23 10:54:20;;;;;;;36.70;23.85;;;10.00;74.90;;;;;;5047524;28;20054;-89
2021/03/23 10:56:49;;;;;;;36.50;26.30;;;9.90;75.70;;;;;;5030112;28;20089;-90
2021/03/23 10:59:19;;;;;;;36.50;25.80;;;9.80;75.80;;;;;;5029351;28;20152;-90
2021/03/23 11:02:03;;;;;;;41.40;28.15;;;9.80;77.00;;;;;;5028874;28;20252;-90
2021/03/23 11:04:30;;;;;;;38.78;26.95;;;9.80;78.10;;;;;;5042909;28;20049;-90
2021/03/23 11:07:15;;;;;;;46.42;30.67;;;9.80;77.90;;;;;;5023712;28;20053;-89
2021/03/23 11:09:40;;;;;;;40.55;29.80;;;9.90;78.00;;;;;;5005229;28;20049;-92
2021/03/23 11:12:06;;;;;;;40.40;28.83;;;9.90;77.90;;;;;;5031787;28;20026;-90
2021/03/23 11:14:32;;;;;;;39.55;27.75;;;9.90;77.70;;;;;;5030428;28;20065;-89
2021/03/23 11:17:00;;;;;;;40.80;27.25;;;10.00;77.40;;;;;;5029049;28;20042;-90
2021/03/23 11:19:32;;;;;;;34.85;26.02;;;10.10;77.20;;;;;;5028869;28;20052;-89
2021/03/23 11:22:03;;;;;;;41.22;29.23;;;10.20;76.00;;;;;;5009436;28;20052;-90
2021/03/23 11:24:30;;;;;;;37.75;29.25;;;10.20;76.10;;;;;;5007814;28;20073;-89
2021/03/23 11:26:58;;;;;;;40.30;28.60;;;10.30;76.40;;;;;;5012218;28;20049;-89
2021/03/23 11:29:25;;;;;;;36.58;27.05;;;10.40;75.90;;;;;;5030060;28;20539;-89
2021/03/23 11:31:51;;;;;;;38.38;26.50;;;10.40;75.70;;;;;;5029675;28;20115;-89
2021/03/23 11:34:16;;;;;;;36.38;24.90;;;10.50;76.10;;;;;;5030101;28;20057;-89
2021/03/23 11:36:42;;;;;;;38.03;25.15;;;10.40;75.20;;;;;;5012599;28;20076;-89
2021/03/23 11:39:09;;;;;;;36.72;25.58;;;10.40;75.00;;;;;;5030204;28;20053;-89
2021/03/23 11:41:40;;;;;;;36.70;24.17;;;10.60;74.30;;;;;;5013958;28;20401;-91
2021/03/23 11:44:18;;;;;;;33.55;25.42;;;10.90;73.00;;;;;;5012463;28;20056;-88
2021/03/23 11:47:03;;;;;;;35.15;23.63;;;11.10;73.20;;;;;;5011928;28;20053;-90
2021/03/23 11:49:46;;;;;;;35.28;25.50;;;11.40;72.30;;;;;;5012400;28;20140;-89
2021/03/23 11:52:13;;;;;;;35.15;25.02;;;11.30;71.40;;;;;;5016521;28;20529;-89
2021/03/23 11:54:39;;;;;;;36.50;25.40;;;11.40;73.30;;;;;;5023712;28;20482;-90
2021/03/23 11:57:05;;;;;;;37.60;23.17;;;11.50;71.20;;;;;;5023903;28;20049;-90
2021/03/23 11:59:31;;;;;;;40.40;28.30;;;11.30;71.60;;;;;;5011441;28;20061;-88
2021/03/23 12:01:57;;;;;;;40.67;25.58;;;11.10;73.00;;;;;;5030779;28;20041;-90
2021/03/23 12:04:23;;;;;;;41.42;27.67;;;11.10;73.20;;;;;;5012367;28;20124;-89
2021/03/23 12:07:00;;;;;;;37.38;24.55;;;11.00;74.00;;;;;;5029916;28;20095;-89
2021/03/23 12:09:33;;;;;;;38.65;26.20;;;11.10;74.60;;;;;;5010833;28;20057;-88
2021/03/23 12:12:17;;;;;;;35.08;24.40;;;11.30;73.20;;;;;;5023432;28;20073;-89
2021/03/23 12:15:02;;;;;;;;;;;;;;;;;;;;;
2021/03/23 12:17:38;;;;;;;41.55;29.95;;;11.50;72.20;;;;;;4996825;28;20066;-92
2021/03/23 12:23:12;;;;;;;46.15;32.90;;;11.50;71.20;;;;;;4915187;28;20123;-91
2021/03/23 12:26:37;;;;;;;46.78;33.70;;;11.60;72.60;;;;;;4929982;28;20852;-91
2021/03/23 12:29:26;;;;;;;44.45;31.60;;;11.60;72.20;;;;;;4891067;28;20039;-92
2021/03/23 12:32:10;;;;;;;44.00;31.35;;;11.70;72.80;;;;;;4909726;28;20073;-91
2021/03/23 12:35:19;;;;;;;43.35;30.25;;;11.60;72.90;;;;;;4940629;28;20414;-90
2021/03/23 12:38:07;;;;;;;39.90;27.60;;;11.60;73.50;;;;;;4907538;28;20453;-89
2021/03/23 12:40:33;;;;;;;41.85;28.55;;;11.60;71.30;;;;;;4980277;28;20129;-90
2021/03/23 12:43:12;;;;;;;43.58;29.83;;;11.80;72.90;;;;;;4978770;28;20070;-88
2021/03/23 12:45:59;;;;;;;43.40;31.77;;;12.00;71.90;;;;;;4985625;28;20041;-88
2021/03/23 12:48:26;;;;;;;47.40;32.55;;;;;;;;;;4950985;28;20045;-89
2021/03/23 12:50:53;;;;;;;42.25;28.05;;;;;;;;;;4988605;28;20055;-90
2021/03/23 12:53:23;;;;;;;43.15;28.05;;;;;;;;;;4992113;28;20175;-89
2021/03/23 12:56:03;;;;;;;42.42;31.23;;;;;;;;;;4958161;28;20517;-90
2021/03/23 12:58:32;;;;;;;40.15;29.80;;;;;;;;;;4981299;28;20099;-89
2021/03/23 13:00:59;;;;;;;43.10;30.65;;;;;;;;;;5006927;28;20490;-88
2021/03/23 13:03:28;;;;;;;43.25;28.08;;;;;;;;;;4981442;28;20090;-89
2021/03/23 13:09:11;;;;;;;41.13;30.55;;;;;;;;;;4974592;28;20680;-93
2021/03/23 13:12:06;;;;;;;43.20;30.25;;;;;;;;;;4881012;28;20153;-95
2021/03/23 13:14:47;;;;;;;41.03;27.92;;;;;;;;;;4851103;29;20052;-94
2021/03/23 13:17:21;;;;;;;46.00;29.60;;;;;;;;;;4845865;29;20046;-94
2021/03/23 13:20:10;;;;;;;41.72;27.70;;;;;;;;;;4840459;29;20053;-93